createdAt,value
2023-04-08T00:00:13.740Z,8.67
2023-04-08T00:03:02.747Z,8.55
2023-04-08T00:05:30.167Z,8.61
2023-04-08T00:07:57.668Z,8.52
2023-04-08T00:10:26.483Z,8.53
2023-04-08T00:12:54.113Z,8.57
2023-04-08T00:15:21.320Z,8.58
2023-04-08T00:17:48.922Z,8.61
2023-04-08T00:20:16.499Z,8.67
2023-04-08T00:22:44.009Z,8.68
2023-04-08T00:25:11.322Z,8.75
2023-04-08T00:27:38.960Z,8.77
2023-04-08T00:30:07.123Z,8.77
2023-04-08T00:32:34.754Z,8.65
2023-04-08T00:35:02.805Z,8.63
2023-04-08T00:37:31.547Z,8.62
2023-04-08T00:39:58.825Z,8.58
2023-04-08T00:42:26.684Z,8.59
2023-04-08T00:44:53.972Z,8.48
2023-04-08T00:47:21.529Z,8.52
2023-04-08T00:49:49.055Z,8.61
2023-04-08T00:52:17.124Z,8.46
2023-04-08T00:54:44.426Z,8.33
2023-04-08T00:57:12.002Z,8.13
2023-04-08T00:59:39.439Z,8.02
2023-04-08T01:02:15.400Z,7.87
2023-04-08T01:05:07.871Z,8.04
2023-04-08T01:07:44.778Z,8.08
2023-04-08T01:10:34.635Z,7.79
2023-04-08T01:13:08.436Z,7.76
2023-04-08T01:15:39.023Z,7.43
2023-04-08T01:18:14.391Z,7.54
2023-04-08T01:20:43.366Z,7.72
2023-04-08T01:23:21.047Z,7.72
2023-04-08T01:25:58.733Z,7.71
2023-04-08T01:28:31.040Z,7.74
2023-04-08T01:31:01.720Z,7.76
2023-04-08T01:33:31.626Z,7.76
2023-04-08T01:36:00.667Z,7.78
2023-04-08T01:38:31.916Z,7.79
2023-04-08T01:41:00.106Z,7.77
2023-04-08T01:43:28.712Z,7.82
2023-04-08T01:45:58.579Z,7.81
2023-04-08T01:48:27.986Z,7.29
2023-04-08T01:50:57.054Z,7.28
2023-04-08T01:53:24.746Z,7.21
2023-04-08T01:56:01.771Z,7.26
2023-04-08T01:58:33.321Z,7.46
2023-04-08T02:01:00.985Z,7.44
2023-04-08T02:03:31.183Z,7.18
2023-04-08T02:05:58.606Z,7.54
2023-04-08T02:08:26.258Z,7.25
2023-04-08T02:10:54.349Z,7.21
2023-04-08T02:13:21.914Z,7.40
2023-04-08T02:15:56.310Z,7.45
2023-04-08T02:18:29.859Z,7.54
2023-04-08T02:21:04.722Z,7.50
2023-04-08T02:23:35.644Z,7.51
2023-04-08T02:26:06.051Z,7.57
2023-04-08T02:28:35.664Z,7.32
2023-04-08T02:31:03.824Z,6.89
2023-04-08T02:33:33.990Z,7.24
2023-04-08T02:36:03.250Z,6.95
2023-04-08T02:38:30.978Z,7.02
2023-04-08T02:40:58.826Z,6.88
2023-04-08T02:43:32.621Z,7.33
2023-04-08T02:46:03.706Z,7.53
2023-04-08T02:48:31.707Z,7.58
2023-04-08T02:50:58.916Z,7.68
2023-04-08T02:53:26.561Z,7.67
2023-04-08T02:55:53.910Z,7.79
2023-04-08T02:58:21.448Z,7.88
2023-04-08T03:00:48.667Z,7.91
2023-04-08T03:03:16.388Z,7.82
2023-04-08T03:05:43.791Z,7.77
2023-04-08T03:08:11.381Z,7.80
2023-04-08T03:10:38.581Z,7.79
2023-04-08T03:13:06.165Z,7.73
2023-04-08T03:15:33.548Z,7.70
2023-04-08T03:18:01.110Z,7.86
2023-04-08T03:20:28.309Z,7.83
2023-04-08T03:22:56.123Z,7.79
2023-04-08T03:25:23.313Z,7.89
2023-04-08T03:27:51.243Z,7.78
2023-04-08T03:30:18.654Z,7.90
2023-04-08T03:32:46.355Z,7.96
2023-04-08T03:35:13.670Z,7.92
2023-04-08T03:37:41.233Z,7.92
2023-04-08T03:40:09.345Z,7.92
2023-04-08T03:42:36.946Z,7.62
2023-04-08T03:45:04.872Z,7.29
2023-04-08T03:47:32.402Z,7.08
2023-04-08T03:49:59.669Z,7.14
2023-04-08T03:52:27.262Z,7.44
2023-04-08T03:54:54.510Z,7.57
2023-04-08T03:57:22.047Z,7.55
2023-04-08T03:59:49.285Z,7.58
2023-04-08T04:02:16.979Z,7.59
2023-04-08T04:04:44.364Z,7.47
2023-04-08T04:07:11.893Z,7.41
2023-04-08T04:09:39.048Z,7.34
2023-04-08T04:12:06.537Z,7.34
2023-04-08T04:14:33.756Z,7.30
2023-04-08T04:17:01.369Z,7.42
2023-04-08T04:19:32.030Z,7.41
2023-04-08T04:21:59.820Z,7.46
2023-04-08T04:24:27.068Z,7.51
2023-04-08T04:26:54.565Z,7.51
2023-04-08T04:29:21.755Z,7.59
2023-04-08T04:31:49.269Z,7.60
2023-04-08T04:34:17.308Z,7.63
2023-04-08T04:36:44.907Z,7.83
2023-04-08T04:39:12.107Z,7.79
2023-04-08T04:41:40.724Z,7.78
2023-04-08T04:44:07.999Z,7.97
2023-04-08T04:46:35.580Z,8.05
2023-04-08T04:49:02.902Z,8.07
2023-04-08T04:51:33.206Z,8.06
2023-04-08T04:54:00.571Z,7.98
2023-04-08T04:56:28.045Z,8.16
2023-04-08T04:58:55.233Z,8.36
2023-04-08T05:01:22.771Z,8.44
2023-04-08T05:03:50.068Z,8.53
2023-04-08T05:06:17.609Z,8.63
2023-04-08T05:08:44.902Z,8.56
2023-04-08T05:11:12.673Z,8.74
2023-04-08T05:13:40.002Z,8.98
2023-04-08T05:16:07.852Z,9.05
2023-04-08T05:18:35.377Z,9.15
2023-04-08T05:21:03.398Z,9.25
2023-04-08T05:23:30.647Z,9.37
2023-04-08T05:25:58.164Z,9.26
2023-04-08T05:28:25.649Z,9.32
2023-04-08T05:30:54.624Z,9.49
2023-04-08T05:33:21.869Z,9.63
2023-04-08T05:35:49.378Z,9.65
2023-04-08T05:38:16.664Z,9.58
2023-04-08T05:40:44.352Z,9.38
2023-04-08T05:43:11.519Z,9.56
2023-04-08T05:45:38.982Z,9.20
2023-04-08T05:48:06.364Z,9.37
2023-04-08T05:50:36.333Z,8.61
2023-04-08T05:53:03.582Z,8.99
2023-04-08T05:55:31.189Z,8.38
2023-04-08T05:57:58.399Z,8.89
2023-04-08T06:00:26.933Z,8.92
2023-04-08T06:02:54.414Z,9.42
2023-04-08T06:05:22.076Z,9.11
2023-04-08T06:07:49.287Z,9.07
2023-04-08T06:10:16.855Z,8.78
2023-04-08T06:12:44.069Z,8.95
2023-04-08T06:15:11.700Z,9.05
2023-04-08T06:17:39.460Z,8.89
2023-04-08T06:20:09.456Z,8.90
2023-04-08T06:22:36.956Z,8.97
2023-04-08T06:25:04.673Z,9.52
2023-04-08T06:27:32.076Z,9.89
2023-04-08T06:29:59.538Z,9.83
2023-04-08T06:32:26.816Z,10.17
2023-04-08T06:34:54.286Z,10.21
2023-04-08T06:37:21.581Z,10.33
2023-04-08T06:39:49.060Z,10.52
2023-04-08T06:42:16.253Z,10.60
2023-04-08T06:45:00.027Z,10.11
2023-04-08T06:47:27.240Z,10.47
2023-04-08T06:49:54.767Z,10.66
2023-04-08T06:52:21.978Z,10.95
2023-04-08T06:54:49.533Z,11.33
2023-04-08T06:57:16.765Z,11.70
2023-04-08T06:59:44.231Z,11.57
2023-04-08T07:02:11.776Z,11.77
2023-04-08T07:04:39.322Z,11.82
2023-04-08T07:07:07.394Z,11.96
2023-04-08T07:09:36.993Z,12.18
2023-04-08T07:12:05.042Z,12.05
2023-04-08T07:14:32.638Z,12.32
2023-04-08T07:16:59.864Z,12.45
2023-04-08T07:19:27.749Z,12.11
2023-04-08T07:21:54.978Z,11.72
2023-04-08T07:24:22.474Z,11.42
2023-04-08T07:26:49.793Z,11.33
2023-04-08T07:29:17.394Z,10.91
2023-04-08T07:31:44.939Z,11.51
2023-04-08T07:34:12.404Z,10.97
2023-04-08T07:36:40.835Z,11.53
2023-04-08T07:39:08.377Z,12.02
2023-04-08T07:41:35.632Z,11.92
2023-04-08T07:44:03.185Z,11.59
2023-04-08T07:46:31.728Z,11.73
2023-04-08T07:48:59.255Z,12.22
2023-04-08T07:51:27.752Z,11.98
2023-04-08T07:53:55.302Z,11.96
2023-04-08T07:56:22.552Z,12.26
2023-04-08T07:58:53.311Z,11.54
2023-04-08T08:01:23.035Z,12.07
2023-04-08T08:03:52.900Z,11.50
2023-04-08T08:06:20.930Z,11.84
2023-04-08T08:08:48.564Z,11.93
2023-04-08T08:11:15.838Z,12.34
2023-04-08T08:13:43.454Z,12.53
2023-04-08T08:16:12.074Z,13.09
2023-04-08T08:18:41.157Z,13.41
2023-04-08T08:21:09.068Z,14.03
2023-04-08T08:23:37.912Z,14.97
2023-04-08T08:26:07.780Z,15.15
2023-04-08T08:28:35.589Z,15.52
2023-04-08T08:31:03.669Z,15.75
2023-04-08T08:33:31.446Z,15.90
2023-04-08T08:35:58.935Z,16.03
2023-04-08T08:38:27.185Z,16.12
2023-04-08T08:40:56.372Z,16.65
2023-04-08T08:43:25.398Z,17.45
2023-04-08T08:45:53.246Z,17.62
2023-04-08T08:48:20.903Z,17.48
2023-04-08T08:50:48.147Z,17.76
2023-04-08T08:53:15.653Z,17.53
2023-04-08T08:58:13.796Z,16.81
2023-04-08T09:00:45.548Z,15.89
2023-04-08T09:03:23.757Z,16.41
2023-04-08T09:05:59.507Z,17.65
2023-04-08T09:08:35.557Z,18.26
2023-04-08T09:11:22.496Z,18.59
2023-04-08T09:13:50.648Z,19.26
2023-04-08T09:16:23.050Z,19.98
2023-04-08T09:18:56.115Z,19.42
2023-04-08T09:21:27.668Z,21.42
2023-04-08T09:23:55.307Z,22.21
2023-04-08T09:26:24.900Z,23.06
2023-04-08T09:29:25.224Z,21.57
2023-04-08T09:32:01.140Z,21.48
2023-04-08T09:34:30.954Z,22.54
2023-04-08T09:36:58.217Z,23.06
2023-04-08T09:39:25.895Z,21.17
2023-04-08T09:41:58.527Z,21.44
2023-04-08T09:44:29.315Z,21.67
2023-04-08T09:47:08.503Z,22.95
2023-04-08T09:49:51.544Z,22.54
2023-04-08T09:52:24.420Z,23.86
2023-04-08T09:54:55.732Z,25.04
2023-04-08T09:57:37.198Z,24.68
2023-04-08T10:00:11.085Z,22.44
2023-04-08T10:03:05.613Z,23.73
2023-04-08T10:05:39.779Z,24.04
2023-04-08T10:08:07.738Z,25.02
2023-04-08T10:10:39.859Z,23.95
2023-04-08T10:13:08.386Z,24.38
2023-04-08T10:15:37.664Z,23.41
2023-04-08T10:18:05.766Z,24.52
2023-04-08T10:20:36.489Z,24.84
2023-04-08T10:23:05.523Z,21.73
2023-04-08T10:25:40.563Z,21.55
2023-04-08T10:28:19.781Z,22.24
2023-04-08T10:30:48.209Z,23.78
2023-04-08T10:33:19.530Z,24.35
2023-04-08T10:35:50.184Z,23.09
2023-04-08T10:38:17.859Z,23.03
2023-04-08T10:40:46.063Z,20.12
2023-04-08T10:43:15.148Z,20.47
2023-04-08T10:45:45.784Z,18.41
2023-04-08T10:48:18.792Z,19.21
2023-04-08T10:50:55.199Z,19.70
2023-04-08T10:53:37.831Z,20.92
2023-04-08T10:56:13.282Z,20.25
2023-04-08T10:58:59.920Z,20.69
2023-04-08T11:01:27.885Z,18.49
2023-04-08T11:03:55.358Z,17.46
2023-04-08T11:06:23.518Z,19.57
2023-04-08T11:08:50.703Z,19.94
2023-04-08T11:11:19.486Z,20.57
2023-04-08T11:13:53.287Z,20.58
2023-04-08T11:16:22.569Z,20.77
2023-04-08T11:18:51.477Z,20.45
2023-04-08T11:21:19.181Z,19.77
2023-04-08T11:23:50.167Z,16.33
2023-04-08T11:26:19.319Z,16.17
2023-04-08T11:28:49.224Z,17.34
2023-04-08T11:31:17.771Z,18.11
2023-04-08T11:33:49.912Z,19.07
2023-04-08T11:36:18.929Z,16.24
2023-04-08T11:38:48.174Z,16.64
2023-04-08T11:41:16.362Z,16.85
2023-04-08T11:43:54.471Z,16.80
2023-04-08T11:46:23.124Z,17.72
2023-04-08T11:49:08.133Z,16.92
2023-04-08T11:55:28.387Z,16.40
2023-04-08T11:57:57.427Z,16.42
2023-04-08T12:00:24.769Z,15.81
2023-04-08T12:02:53.132Z,15.67
2023-04-08T12:05:21.161Z,15.15
2023-04-08T12:07:48.864Z,14.82
2023-04-08T12:10:16.161Z,14.79
2023-04-08T12:12:43.694Z,15.04
2023-04-08T12:15:11.603Z,14.87
2023-04-08T12:17:39.123Z,14.89
2023-04-08T12:20:07.760Z,14.96
2023-04-08T12:22:35.382Z,14.03
2023-04-08T12:25:04.132Z,14.89
2023-04-08T12:27:33.590Z,14.76
2023-04-08T12:30:02.296Z,15.01
2023-04-08T12:32:30.848Z,15.04
2023-04-08T12:34:58.160Z,14.93
2023-04-08T12:37:25.646Z,15.10
2023-04-08T12:39:52.854Z,15.37
2023-04-08T12:42:20.371Z,14.90
2023-04-08T12:44:47.666Z,15.18
2023-04-08T12:47:15.336Z,15.15
2023-04-08T12:49:49.308Z,15.19
2023-04-08T12:52:17.774Z,15.07
2023-04-08T12:54:45.124Z,15.00
2023-04-08T12:57:12.714Z,14.92
2023-04-08T12:59:40.288Z,14.94
2023-04-08T13:02:08.237Z,14.73
2023-04-08T13:04:35.704Z,14.78
2023-04-08T13:07:04.525Z,14.37
2023-04-08T13:09:31.776Z,14.52
2023-04-08T13:11:59.759Z,13.56
2023-04-08T13:14:27.527Z,13.41
2023-04-08T13:16:55.138Z,13.86
2023-04-08T13:19:22.452Z,13.86
2023-04-08T13:21:49.912Z,14.01
2023-04-08T13:24:17.149Z,13.57
2023-04-08T13:26:44.665Z,13.63
2023-04-08T13:29:11.974Z,13.53
2023-04-08T13:31:39.577Z,13.67
2023-04-08T13:34:07.167Z,13.40
2023-04-08T13:36:34.641Z,13.10
2023-04-08T13:39:02.187Z,13.30
2023-04-08T13:41:30.187Z,13.70
2023-04-08T13:43:57.398Z,13.56
2023-04-08T13:46:24.996Z,13.54
2023-04-08T13:48:52.726Z,13.78
2023-04-08T13:51:20.503Z,14.07
2023-04-08T13:53:47.782Z,13.40
2023-04-08T13:56:15.478Z,13.49
2023-04-08T13:58:42.898Z,13.64
2023-04-08T14:01:11.228Z,12.93
2023-04-08T14:03:38.610Z,12.67
2023-04-08T14:06:06.107Z,12.69
2023-04-08T14:08:33.331Z,12.55
2023-04-08T14:11:00.952Z,12.53
2023-04-08T14:13:28.220Z,12.64
2023-04-08T14:15:58.525Z,12.13
2023-04-08T14:18:26.238Z,12.13
2023-04-08T14:20:53.663Z,12.13
2023-04-08T14:23:21.280Z,12.36
2023-04-08T14:25:48.868Z,12.00
2023-04-08T14:28:16.209Z,12.23
2023-04-08T14:30:43.811Z,12.17
2023-04-08T14:33:11.462Z,12.06
2023-04-08T14:35:39.011Z,11.78
2023-04-08T14:38:06.399Z,11.77
2023-04-08T14:40:34.728Z,11.34
2023-04-08T14:43:03.160Z,11.31
2023-04-08T14:45:31.134Z,11.48
2023-04-08T14:47:58.327Z,11.30
2023-04-08T14:50:25.822Z,11.29
2023-04-08T14:52:53.090Z,11.25
2023-04-08T14:55:22.588Z,11.43
2023-04-08T14:57:49.873Z,11.63
2023-04-08T15:00:17.520Z,11.38
2023-04-08T15:02:44.874Z,11.45
2023-04-08T15:05:12.465Z,11.56
2023-04-08T15:07:39.836Z,11.55
2023-04-08T15:10:07.946Z,11.58
2023-04-08T15:12:36.478Z,11.33
2023-04-08T15:15:04.779Z,11.35
2023-04-08T15:17:32.232Z,11.33
2023-04-08T15:19:59.839Z,11.32
2023-04-08T15:22:27.185Z,11.37
2023-04-08T15:24:54.745Z,11.50
2023-04-08T15:27:22.901Z,11.51
2023-04-08T15:29:50.394Z,11.47
2023-04-08T15:32:17.567Z,11.39
2023-04-08T15:34:45.132Z,11.42
2023-04-08T15:37:12.330Z,11.51
2023-04-08T15:39:41.780Z,11.45
2023-04-08T15:42:09.094Z,11.53
2023-04-08T15:44:36.881Z,11.37
2023-04-08T15:47:04.839Z,11.48
2023-04-08T15:49:32.478Z,11.36
2023-04-08T15:51:59.788Z,11.38
2023-04-08T15:54:29.464Z,11.07
2023-04-08T15:56:58.363Z,10.98
2023-04-08T15:59:29.801Z,10.92
2023-04-08T16:01:57.299Z,11.04
2023-04-08T16:04:25.124Z,10.95
2023-04-08T16:06:52.433Z,11.04
2023-04-08T16:09:25.527Z,11.01
2023-04-08T16:11:53.847Z,11.06
2023-04-08T16:14:21.458Z,11.06
2023-04-08T16:16:49.294Z,11.00
2023-04-08T16:19:17.485Z,10.87
2023-04-08T16:21:44.744Z,10.97
2023-04-08T16:24:12.235Z,10.94
2023-04-08T16:26:40.911Z,10.96
2023-04-08T16:29:08.503Z,10.92
2023-04-08T16:31:35.969Z,10.92
2023-04-08T16:34:04.379Z,10.86
2023-04-08T16:36:31.569Z,10.71
2023-04-08T16:38:59.181Z,10.78
2023-04-08T16:41:26.552Z,10.72
2023-04-08T16:43:54.117Z,10.66
2023-04-08T16:46:22.117Z,10.65
2023-04-08T16:48:49.575Z,10.63
2023-04-08T16:51:17.641Z,10.45
2023-04-08T16:53:45.143Z,10.36
2023-04-08T16:56:16.480Z,10.31
2023-04-08T16:58:44.085Z,10.32
2023-04-08T17:01:14.198Z,10.17
2023-04-08T17:03:42.119Z,10.07
2023-04-08T17:06:12.151Z,10.04
2023-04-08T17:08:43.573Z,9.84
2023-04-08T17:11:13.500Z,9.84
2023-04-08T17:13:42.706Z,9.78
2023-04-08T17:16:15.001Z,9.66
2023-04-08T17:18:44.294Z,9.64
2023-04-08T17:21:14.116Z,9.47
2023-04-08T17:23:41.936Z,9.25
2023-04-08T17:26:10.115Z,9.14
2023-04-08T17:28:38.106Z,9.10
2023-04-08T17:31:05.378Z,8.98
2023-04-08T17:33:34.092Z,8.97
2023-04-08T17:36:01.626Z,8.91
2023-04-08T17:38:29.278Z,8.84
2023-04-08T17:40:56.597Z,8.63
2023-04-08T17:43:24.295Z,8.69
2023-04-08T17:45:51.751Z,8.72
2023-04-08T17:48:19.281Z,8.62
2023-04-08T17:50:46.512Z,8.54
2023-04-08T17:53:14.144Z,8.50
2023-04-08T17:55:41.342Z,8.47
2023-04-08T17:58:08.979Z,8.42
2023-04-08T18:00:36.222Z,8.33
2023-04-08T18:03:04.362Z,8.30
2023-04-08T18:05:32.045Z,8.17
2023-04-08T18:07:59.705Z,8.23
2023-04-08T18:10:27.018Z,8.15
2023-04-08T18:13:03.751Z,8.16
2023-04-08T18:15:36.221Z,8.13
2023-04-08T18:18:04.227Z,8.11
2023-04-08T18:20:35.699Z,8.07
2023-04-08T18:23:06.379Z,8.05
2023-04-08T18:25:34.669Z,8.07
2023-04-08T18:28:02.260Z,8.01
2023-04-08T18:30:30.371Z,8.01
2023-04-08T18:32:58.077Z,8.00
2023-04-08T18:35:25.955Z,8.01
2023-04-08T18:37:53.576Z,7.98
2023-04-08T18:40:20.889Z,8.07
2023-04-08T18:42:48.473Z,8.06
2023-04-08T18:45:15.844Z,8.24
2023-04-08T18:47:43.445Z,8.14
2023-04-08T18:50:10.887Z,7.87
2023-04-08T18:52:39.052Z,7.90
2023-04-08T18:55:06.620Z,7.86
2023-04-08T18:57:34.589Z,7.82
2023-04-08T19:00:01.960Z,8.08
2023-04-08T19:02:29.572Z,8.08
2023-04-08T19:04:58.192Z,8.29
2023-04-08T19:07:26.121Z,8.16
2023-04-08T19:09:59.577Z,8.24
2023-04-08T19:12:27.382Z,8.35
2023-04-08T19:14:54.887Z,8.20
2023-04-08T19:17:22.353Z,8.20
2023-04-08T19:19:49.538Z,8.37
2023-04-08T19:22:17.147Z,8.25
2023-04-08T19:24:44.728Z,8.44
2023-04-08T19:27:14.091Z,8.48
2023-04-08T19:29:41.353Z,8.42
2023-04-08T19:32:08.982Z,8.68
2023-04-08T19:34:39.433Z,8.73
2023-04-08T19:37:07.459Z,8.61
2023-04-08T19:39:34.669Z,8.63
2023-04-08T19:42:02.218Z,8.72
2023-04-08T19:44:29.441Z,8.78
2023-04-08T19:46:57.912Z,8.71
2023-04-08T19:49:25.352Z,8.78
2023-04-08T19:51:53.021Z,8.79
2023-04-08T19:54:20.234Z,8.75
2023-04-08T19:56:47.762Z,8.39
2023-04-08T19:59:16.745Z,8.63
2023-04-08T20:01:44.331Z,8.56
2023-04-08T20:04:11.700Z,8.75
2023-04-08T20:06:39.242Z,8.66
2023-04-08T20:09:06.539Z,8.85
2023-04-08T20:11:34.557Z,8.78
2023-04-08T20:14:03.714Z,8.99
2023-04-08T20:16:32.069Z,8.94
2023-04-08T20:18:59.377Z,9.02
2023-04-08T20:21:26.845Z,8.91
2023-04-08T20:23:54.192Z,8.98
2023-04-08T20:26:21.689Z,9.12
2023-04-08T20:28:49.632Z,8.90
2023-04-08T20:31:17.405Z,9.11
2023-04-08T20:33:45.635Z,9.08
2023-04-08T20:36:13.809Z,8.86
2023-04-08T20:38:42.701Z,8.91
2023-04-08T20:41:10.441Z,8.92
2023-04-08T20:43:39.412Z,8.78
2023-04-08T20:46:07.619Z,8.84
2023-04-08T20:48:34.803Z,8.84
2023-04-08T20:51:02.928Z,9.00
2023-04-08T20:53:30.185Z,8.96
2023-04-08T20:55:57.644Z,9.01
2023-04-08T20:58:24.839Z,9.12
2023-04-08T21:00:52.512Z,8.89
2023-04-08T21:03:20.773Z,9.13
2023-04-08T21:05:49.074Z,9.20
2023-04-08T21:08:16.293Z,9.23
2023-04-08T21:10:43.839Z,8.90
2023-04-08T21:13:11.075Z,8.88
2023-04-08T21:15:38.582Z,8.87
2023-04-08T21:18:11.132Z,8.96
2023-04-08T21:20:41.894Z,9.03
2023-04-08T21:23:09.218Z,8.97
2023-04-08T21:25:36.662Z,8.76
2023-04-08T21:28:04.991Z,8.65
2023-04-08T21:30:32.507Z,8.72
2023-04-08T21:32:59.721Z,8.72
2023-04-08T21:35:27.265Z,8.75
2023-04-08T21:37:55.004Z,8.69
2023-04-08T21:40:22.641Z,8.79
2023-04-08T21:42:49.878Z,8.78
2023-04-08T21:45:17.887Z,8.62
2023-04-08T21:47:45.606Z,8.66
2023-04-08T21:50:13.145Z,8.62
2023-04-08T21:52:43.008Z,8.57
2023-04-08T21:55:11.227Z,8.66
2023-04-08T21:57:39.306Z,8.71
2023-04-08T22:00:13.180Z,8.84
2023-04-08T22:02:43.957Z,8.68
2023-04-08T22:05:11.817Z,8.74
2023-04-08T22:07:39.079Z,8.68
2023-04-08T22:10:07.454Z,8.80
2023-04-08T22:12:34.867Z,8.74
2023-04-08T22:15:03.086Z,8.89
2023-04-08T22:17:30.277Z,8.99
2023-04-08T22:19:57.805Z,8.91
2023-04-08T22:22:24.974Z,8.98
2023-04-08T22:24:52.638Z,8.99
2023-04-08T22:27:19.906Z,8.99
2023-04-08T22:29:47.381Z,9.06
2023-04-08T22:32:14.930Z,8.98
2023-04-08T22:34:42.450Z,8.99
2023-04-08T22:37:09.663Z,9.05
2023-04-08T22:39:37.177Z,9.06
2023-04-08T22:42:04.350Z,8.82
2023-04-08T22:44:32.066Z,8.86
2023-04-08T22:46:59.354Z,8.76
2023-04-08T22:49:27.143Z,9.00
2023-04-08T22:51:54.302Z,9.08
2023-04-08T22:54:21.872Z,8.94
2023-04-08T22:56:49.114Z,8.89
2023-04-08T22:59:16.584Z,8.97
2023-04-08T23:01:45.194Z,8.88
2023-04-08T23:04:12.863Z,9.05
2023-04-08T23:06:40.238Z,9.03
2023-04-08T23:09:07.791Z,9.02
2023-04-08T23:11:34.959Z,9.01
2023-04-08T23:14:02.585Z,8.90
2023-04-08T23:16:30.928Z,9.01
2023-04-08T23:18:58.413Z,9.09
2023-04-08T23:21:27.120Z,9.19
2023-04-08T23:23:54.654Z,9.15
2023-04-08T23:26:22.040Z,9.13
2023-04-08T23:28:49.845Z,9.16
2023-04-08T23:31:17.254Z,9.15
2023-04-08T23:33:44.736Z,9.06
2023-04-08T23:36:12.860Z,9.07
2023-04-08T23:38:40.532Z,9.12
2023-04-08T23:41:08.258Z,9.20
2023-04-08T23:43:36.373Z,9.25
2023-04-08T23:46:03.661Z,9.31
2023-04-08T23:48:31.218Z,9.28
2023-04-08T23:50:58.491Z,9.31
2023-04-08T23:53:25.984Z,9.40
2023-04-08T23:55:53.156Z,9.35
2023-04-08T23:58:20.751Z,9.17
